Time;durP1;ratioP1;P1;durP2;ratioP2;P2;SDS_P1;SDS_P2;PMS_P1;PMS_P2;Temp;Humidity;BMP_temperature;BMP_pressure;BME280_temperature;BME280_humidity;BME280_pressure;Samples;Min_cycle;Max_cycle;Signal;HPM_P1;HPM_P2
2022/10/11 00:00:29;;;;;;;4.50;0.63;;;;;;;8.67;100.00;101022.09;5013350;28;20256;-75
2022/10/11 00:02:55;;;;;;;13.53;1.60;;;;;;;8.69;100.00;101025.38;5013060;28;20192;-75
2022/10/11 00:05:20;;;;;;;8.50;1.13;;;;;;;8.70;100.00;101028.91;5012955;28;20187;-75
2022/10/11 00:07:46;;;;;;;6.90;1.40;;;;;;;8.70;100.00;101028.91;5012801;28;20185;-75
2022/10/11 00:10:11;;;;;;;1.97;1.43;;;;;;;8.69;100.00;101035.47;5013201;28;20271;-74
2022/10/11 00:12:36;;;;;;;1.80;0.97;;;;;;;8.69;100.00;101043.63;5013130;28;20173;-75
2022/10/11 00:15:03;;;;;;;5.10;1.27;;;;;;;8.70;100.00;101037.91;5012877;28;20208;-75
2022/10/11 00:17:30;;;;;;;3.60;1.27;;;;;;;8.67;100.00;101046.59;5012246;28;20283;-75
2022/10/11 00:19:56;;;;;;;3.40;0.90;;;;;;;8.65;100.00;101051.53;5013010;28;20200;-75
2022/10/11 00:22:21;;;;;;;4.23;1.93;;;;;;;8.60;100.00;101054.31;5012826;28;20264;-75
2022/10/11 00:24:47;;;;;;;3.57;0.87;;;;;;;8.63;100.00;101051.00;5012798;28;20652;-75
2022/10/11 00:27:12;;;;;;;8.00;2.10;;;;;;;8.61;100.00;101055.94;5012588;28;20271;-76
2022/10/11 00:29:37;;;;;;;7.47;1.57;;;;;;;8.60;100.00;101057.03;5013330;28;20235;-75
2022/10/11 00:32:03;;;;;;;5.83;1.43;;;;;;;8.54;100.00;101060.91;5027968;28;20388;-75
2022/10/11 00:34:29;;;;;;;1.07;1.07;;;;;;;8.54;100.00;101061.72;5012802;28;20187;-76
2022/10/11 00:36:54;;;;;;;2.67;1.60;;;;;;;8.54;100.00;101064.44;5012261;28;20216;-76
2022/10/11 00:39:19;;;;;;;3.10;0.83;;;;;;;8.54;100.00;101071.78;5012753;28;20540;-76
2022/10/11 00:41:46;;;;;;;11.23;2.47;;;;;;;8.54;100.00;101078.03;5013006;28;20263;-75
2022/10/11 00:44:21;;;;;;;1.70;1.60;;;;;;;8.50;100.00;101082.41;5012521;28;20216;-76
2022/10/11 00:46:58;;;;;;;3.50;0.87;;;;;;;8.48;100.00;101073.72;5012410;28;20198;-76
2022/10/11 00:49:37;;;;;;;1.07;1.00;;;;;;;8.46;100.00;101069.66;5013116;28;20702;-76
2022/10/11 00:52:13;;;;;;;3.60;1.37;;;;;;;8.48;100.00;101079.16;5011527;28;20212;-76
2022/10/11 00:54:42;;;;;;;4.77;1.60;;;;;;;8.46;100.00;101077.81;5012273;28;20176;-76
2022/10/11 00:57:13;;;;;;;1.23;1.13;;;;;;;8.43;100.00;101072.94;5011766;28;20528;-76
2022/10/11 00:59:46;;;;;;;3.07;1.60;;;;;;;8.42;100.00;101068.59;5012274;28;20180;-76
2022/10/11 01:02:13;;;;;;;4.37;2.50;;;;;;;8.39;100.00;101072.69;5012228;28;20180;-76
2022/10/11 01:04:39;;;;;;;0.87;0.60;;;;;;;8.41;100.00;101083.31;5011960;28;20250;-76
2022/10/11 01:07:04;;;;;;;8.47;1.20;;;;;;;8.37;100.00;101082.22;5026868;28;20219;-76
2022/10/11 01:09:30;;;;;;;3.13;1.47;;;;;;;8.37;100.00;101082.22;5012463;28;20270;-75
2022/10/11 01:12:00;;;;;;;5.10;2.00;;;;;;;8.34;100.00;101083.59;5011889;28;20169;-76
2022/10/11 01:15:04;;;;;;;3.73;0.70;;;;;;;8.33;100.00;101095.56;5013648;28;20660;-75
2022/10/11 01:17:59;;;;;;;0.37;0.37;;;;;;;8.28;100.00;101080.06;4998908;28;20568;-75
2022/10/11 01:20:40;;;;;;;6.30;2.00;;;;;;;8.28;100.00;101087.41;4999802;28;20175;-76
2022/10/11 01:23:22;;;;;;;2.63;1.70;;;;;;;8.24;100.00;101089.88;5031863;28;20172;-76
2022/10/11 01:26:12;;;;;;;4.53;1.43;;;;;;;8.21;100.00;101093.16;5031698;28;20218;-75
2022/10/11 01:28:47;;;;;;;6.17;2.57;;;;;;;8.23;100.00;101096.41;5031910;28;20179;-75
2022/10/11 01:31:39;;;;;;;1.00;1.00;;;;;;;8.18;100.00;101091.00;5013944;28;20184;-76
2022/10/11 01:34:10;;;;;;;3.73;2.10;;;;;;;8.14;100.00;101092.66;5002899;28;20239;-75
2022/10/11 01:36:38;;;;;;;10.20;2.20;;;;;;;8.12;100.00;101094.84;5031413;28;20211;-76
2022/10/11 01:39:37;;;;;;;8.17;2.70;;;;;;;8.10;100.00;101104.34;5031510;28;20168;-76
2022/10/11 01:42:05;;;;;;;2.70;2.47;;;;;;;8.09;100.00;101098.09;5006444;28;20643;-75
2022/10/11 01:44:33;;;;;;;3.30;3.10;;;;;;;8.12;100.00;101094.03;5011751;28;20180;-75
2022/10/11 01:46:58;;;;;;;14.43;3.80;;;;;;;8.11;100.00;101100.56;5011562;28;20189;-76
2022/10/11 01:49:23;;;;;;;15.40;5.37;;;;;;;8.16;100.00;101103.25;5011663;28;20179;-76
2022/10/11 01:51:53;;;;;;;9.70;4.03;;;;;;;8.09;100.00;101114.44;5011666;28;20181;-75
2022/10/11 01:54:43;;;;;;;13.73;4.10;;;;;;;8.06;100.00;101110.34;5011571;28;20188;-76
2022/10/11 01:57:30;;;;;;;3.97;3.27;;;;;;;8.07;100.00;101111.19;5011109;28;20560;-75
2022/10/11 02:00:11;;;;;;;18.73;3.17;;;;;;;8.10;100.00;101118.81;5011418;28;20176;-75
2022/10/11 02:02:50;;;;;;;6.80;3.03;;;;;;;8.10;100.00;101120.69;5011306;28;20179;-75
2022/10/11 02:05:39;;;;;;;1.50;1.40;;;;;;;8.08;100.00;101123.69;5011636;28;20200;-75
2022/10/11 02:08:35;;;;;;;2.13;2.00;;;;;;;8.05;100.00;101125.06;5011374;28;20173;-76
2022/10/11 02:11:08;;;;;;;2.47;1.90;;;;;;;8.10;100.00;101124.25;5011371;28;20177;-76
2022/10/11 02:13:43;;;;;;;3.60;3.10;;;;;;;8.07;100.00;101122.06;5011247;28;20550;-76
2022/10/11 02:16:15;;;;;;;2.77;2.37;;;;;;;8.01;100.00;101118.56;5010812;28;20743;-75
2022/10/11 02:18:46;;;;;;;3.83;2.07;;;;;;;8.01;100.00;101125.91;5011138;28;20203;-75
2022/10/11 02:21:16;;;;;;;1.93;1.67;;;;;;;8.01;100.00;101123.19;5011177;28;20176;-76
2022/10/11 02:23:47;;;;;;;2.37;2.03;;;;;;;8.02;100.00;101125.63;5011450;28;20173;-76
2022/10/11 02:26:13;;;;;;;1.10;1.10;;;;;;;8.06;100.00;101125.88;5011466;28;20183;-75
2022/10/11 02:28:42;;;;;;;5.50;1.77;;;;;;;8.03;100.00;101127.25;5011131;28;20668;-75
2022/10/11 02:31:10;;;;;;;3.83;2.23;;;;;;;8.00;100.00;101127.81;5011337;28;20623;-76
2022/10/11 02:33:52;;;;;;;8.73;2.10;;;;;;;7.99;100.00;101128.91;5011050;28;20369;-76
2022/10/11 02:36:55;;;;;;;0.97;0.97;;;;;;;8.00;100.00;101137.88;5010626;28;20208;-76
2022/10/11 02:39:34;;;;;;;26.87;1.60;;;;;;;7.93;100.00;101127.28;5011346;28;20181;-76
2022/10/11 02:42:03;;;;;;;2.40;1.37;;;;;;;7.96;100.00;101137.63;5010937;28;20176;-75
2022/10/11 02:44:37;;;;;;;1.40;1.30;;;;;;;7.97;100.00;101135.72;5011269;28;20183;-76
2022/10/11 02:47:03;;;;;;;1.77;1.50;;;;;;;7.98;100.00;101138.16;5010722;28;20183;-76
2022/10/11 02:49:30;;;;;;;0.80;0.77;;;;;;;7.96;100.00;101136.81;5010905;28;20547;-76
2022/10/11 02:51:56;;;;;;;6.77;1.07;;;;;;;7.97;100.00;101147.41;5010851;28;20184;-75
2022/10/11 02:54:25;;;;;;;0.83;0.70;;;;;;;7.96;100.00;101142.25;5010822;28;20314;-75
2022/10/11 02:56:50;;;;;;;1.67;1.57;;;;;;;7.96;100.00;101144.97;5010722;28;20563;-75
2022/10/11 02:59:16;;;;;;;9.80;1.27;;;;;;;7.92;100.00;101143.88;5014739;28;20182;-75
2022/10/11 03:01:42;;;;;;;0.70;0.70;;;;;;;7.93;100.00;101138.16;5030424;28;20255;-75
2022/10/11 03:04:07;;;;;;;0.80;0.80;;;;;;;7.93;100.00;101140.06;5030239;28;20230;-75
2022/10/11 03:06:32;;;;;;;1.20;0.97;;;;;;;7.91;100.00;101155.84;5030240;28;20230;-76
2022/10/11 03:08:58;;;;;;;1.70;1.60;;;;;;;7.90;100.00;101149.59;5030445;28;20183;-76
2022/10/11 03:11:23;;;;;;;9.13;1.70;;;;;;;7.89;100.00;101152.59;5030374;28;20258;-76
2022/10/11 03:13:48;;;;;;;11.67;1.27;;;;;;;7.88;100.00;101156.41;5012528;28;20636;-76
2022/10/11 03:16:14;;;;;;;0.83;0.83;;;;;;;7.89;100.00;101168.91;5033328;28;20234;-76
2022/10/11 03:18:39;;;;;;;4.40;1.83;;;;;;;7.89;100.00;101166.19;5034142;28;20210;-75
2022/10/11 03:21:04;;;;;;;12.67;1.50;;;;;;;7.85;100.00;101181.44;5034151;28;20543;-75
2022/10/11 03:23:29;;;;;;;9.03;1.00;;;;;;;7.84;100.00;101177.09;5034158;28;20182;-76
2022/10/11 03:25:55;;;;;;;1.80;1.10;;;;;;;7.85;100.00;101176.00;5033781;28;20654;-75
2022/10/11 03:28:20;;;;;;;4.30;0.83;;;;;;;7.84;100.00;101188.00;5034009;28;20183;-75
2022/10/11 03:30:50;;;;;;;2.10;1.03;;;;;;;7.86;100.00;101186.63;5034125;28;20187;-75
2022/10/11 03:33:16;;;;;;;5.17;1.73;;;;;;;7.87;100.00;101192.88;5034009;28;20230;-76
2022/10/11 03:35:44;;;;;;;1.80;1.13;;;;;;;7.88;100.00;101189.88;5015947;28;20215;-75
2022/10/11 03:38:16;;;;;;;6.67;1.37;;;;;;;7.87;100.00;101192.88;5033843;28;20176;-75
2022/10/11 03:40:42;;;;;;;2.73;1.07;;;;;;;7.87;100.00;101195.59;5033703;28;20200;-76
2022/10/11 03:43:09;;;;;;;3.37;2.50;;;;;;;7.88;100.00;101194.50;5033762;28;20172;-75
2022/10/11 03:45:34;;;;;;;3.10;1.33;;;;;;;7.87;100.00;101195.59;5033898;28;20623;-76
2022/10/11 03:47:59;;;;;;;1.73;1.00;;;;;;;7.90;100.00;101195.84;5033523;28;20212;-76
2022/10/11 03:50:25;;;;;;;7.47;1.50;;;;;;;7.90;100.00;101198.56;5033801;28;20644;-76
2022/10/11 03:52:50;;;;;;;7.53;1.57;;;;;;;7.92;100.00;101201.00;5033603;28;20251;-75
2022/10/11 03:55:15;;;;;;;8.70;1.27;;;;;;;7.96;100.00;101202.13;5033396;28;20259;-75
2022/10/11 03:57:41;;;;;;;1.87;1.67;;;;;;;7.93;100.00;101199.91;5033300;28;20303;-76
2022/10/11 04:00:07;;;;;;;14.13;1.57;;;;;;;7.94;100.00;101217.88;5033534;28;20180;-75
2022/10/11 04:02:32;;;;;;;3.03;1.47;;;;;;;7.94;100.00;101212.44;5033214;28;20255;-76
2022/10/11 04:04:57;;;;;;;0.83;0.83;;;;;;;7.91;100.00;101213.81;5033365;28;20164;-75
2022/10/11 04:07:23;;;;;;;10.17;1.00;;;;;;;7.96;100.00;101218.44;5033527;28;20184;-75
2022/10/11 04:09:48;;;;;;;3.93;0.90;;;;;;;7.97;100.00;101220.06;5033317;28;20191;-76
2022/10/11 04:12:13;;;;;;;1.00;1.00;;;;;;;7.96;100.00;101227.41;5033397;28;20190;-76
2022/10/11 04:14:39;;;;;;;12.97;1.83;;;;;;;7.90;100.00;101224.97;5033223;28;20259;-76
2022/10/11 04:17:04;;;;;;;8.90;1.17;;;;;;;7.90;100.00;101220.34;5033015;28;20323;-75
2022/10/11 04:19:30;;;;;;;1.53;1.43;;;;;;;7.99;100.00;101232.31;5033125;28;20176;-76
2022/10/11 04:21:55;;;;;;;2.17;1.47;;;;;;;7.96;100.00;101232.84;5033167;28;20183;-75
2022/10/11 04:24:20;;;;;;;9.83;1.10;;;;;;;7.94;100.00;101231.47;5032969;28;20187;-75
2022/10/11 04:26:46;;;;;;;2.90;2.60;;;;;;;7.96;100.00;101234.75;5031585;28;20590;-76
2022/10/11 04:29:11;;;;;;;10.13;0.93;;;;;;;7.99;100.00;101239.66;5032915;28;20223;-75
2022/10/11 04:31:36;;;;;;;1.13;1.03;;;;;;;8.00;100.00;101242.09;5032995;28;20172;-75
2022/10/11 04:34:02;;;;;;;0.53;0.53;;;;;;;7.97;100.00;101245.38;5032895;28;20172;-75
2022/10/11 04:36:28;;;;;;;1.33;1.33;;;;;;;7.95;100.00;101246.72;5031030;28;20199;-75
2022/10/11 04:38:55;;;;;;;2.03;0.80;;;;;;;7.90;100.00;101252.97;5032673;28;20524;-75
2022/10/11 04:41:20;;;;;;;12.03;2.13;;;;;;;7.84;100.00;101254.09;5032767;28;20263;-75
2022/10/11 04:43:46;;;;;;;1.13;1.10;;;;;;;7.89;100.00;101255.97;5032644;28;20172;-75
2022/10/11 04:46:11;;;;;;;2.67;1.43;;;;;;;7.89;100.00;101255.97;5032736;28;20175;-75
2022/10/11 04:48:36;;;;;;;2.30;1.57;;;;;;;7.90;100.00;101263.06;5032585;28;20206;-75
2022/10/11 04:51:02;;;;;;;1.40;1.30;;;;;;;7.87;100.00;101258.16;5032575;28;20756;-75
2022/10/11 04:53:27;;;;;;;1.47;1.23;;;;;;;7.87;100.00;101260.88;5032728;28;20168;-75
2022/10/11 04:55:56;;;;;;;9.20;1.53;;;;;;;7.84;100.00;101264.16;5027753;28;20262;-75
2022/10/11 04:58:22;;;;;;;3.97;1.30;;;;;;;7.85;100.00;101265.78;5012684;28;20260;-75
2022/10/11 05:00:47;;;;;;;6.87;2.20;;;;;;;7.82;100.00;101264.44;5012596;28;20564;-75
2022/10/11 05:03:12;;;;;;;8.00;2.60;;;;;;;7.84;100.00;101269.59;5012435;28;20188;-76
2022/10/11 05:05:37;;;;;;;19.50;2.67;;;;;;;7.84;100.00;101278.56;5012519;28;20567;-75
2022/10/11 05:08:03;;;;;;;10.30;1.40;;;;;;;7.80;100.00;101273.94;5012671;28;20172;-76
2022/10/11 05:10:28;;;;;;;3.53;2.73;;;;;;;7.79;100.00;101272.28;5013018;28;20663;-75
2022/10/11 05:12:53;;;;;;;6.30;1.67;;;;;;;7.81;100.00;101281.00;5012540;28;20195;-74
2022/10/11 05:15:19;;;;;;;5.00;1.50;;;;;;;7.79;100.00;101280.47;5027514;28;20196;-73
2022/10/11 05:17:44;;;;;;;1.43;1.13;;;;;;;7.72;100.00;101276.13;5011675;28;20555;-75
2022/10/11 05:20:11;;;;;;;1.07;1.07;;;;;;;7.78;100.00;101284.28;5012339;28;20528;-79
2022/10/11 05:22:36;;;;;;;2.40;1.83;;;;;;;7.75;100.00;101283.72;5012268;28;20168;-74
2022/10/11 05:25:02;;;;;;;4.17;2.10;;;;;;;7.79;100.00;101286.72;5012116;28;20191;-74
2022/10/11 05:27:27;;;;;;;4.20;1.87;;;;;;;7.76;100.00;101296.25;5011971;28;20259;-74
2022/10/11 05:29:52;;;;;;;1.53;1.13;;;;;;;7.75;100.00;101296.50;5012417;28;20226;-74
2022/10/11 05:32:18;;;;;;;17.03;2.33;;;;;;;7.70;100.00;101297.34;5012265;28;20176;-76
2022/10/11 05:34:43;;;;;;;7.63;1.80;;;;;;;7.67;100.00;101297.88;5012067;28;20201;-76
2022/10/11 05:37:08;;;;;;;10.37;2.53;;;;;;;7.67;100.00;101303.31;5011409;28;20204;-75
2022/10/11 05:39:33;;;;;;;7.60;1.20;;;;;;;7.66;100.00;101309.81;5012006;28;20169;-75
2022/10/11 05:41:59;;;;;;;2.50;2.30;;;;;;;7.63;100.00;101299.50;5012033;28;20665;-75
2022/10/11 05:44:24;;;;;;;1.67;1.33;;;;;;;7.65;100.00;101315.53;5011717;28;20173;-73
2022/10/11 05:46:49;;;;;;;0.67;0.67;;;;;;;7.60;100.00;101313.63;5011378;28;20674;-74
2022/10/11 05:49:15;;;;;;;16.47;1.60;;;;;;;7.60;100.00;101313.63;5011214;28;20211;-73
2022/10/11 05:51:40;;;;;;;1.33;1.30;;;;;;;7.62;100.00;101319.63;5026213;28;20184;-74
2022/10/11 05:54:05;;;;;;;1.97;1.77;;;;;;;7.65;100.00;101326.41;5011212;28;20172;-74
2022/10/11 05:56:31;;;;;;;4.10;2.37;;;;;;;7.68;100.00;101318.56;5010737;28;20200;-73
2022/10/11 05:58:56;;;;;;;2.87;2.67;;;;;;;7.65;100.00;101321.78;5011042;28;20173;-73
2022/10/11 06:01:24;;;;;;;2.47;2.27;;;;;;;7.66;100.00;101323.41;5011067;28;20173;-73
2022/10/11 06:03:50;;;;;;;1.33;1.23;;;;;;;7.68;100.00;101328.63;5010790;28;20211;-73
2022/10/11 06:06:16;;;;;;;0.67;0.67;;;;;;;7.70;100.00;101332.69;5010655;28;20232;-73
2022/10/11 06:08:42;;;;;;;1.10;1.07;;;;;;;7.69;100.00;101322.91;5011037;28;20180;-76
2022/10/11 06:11:14;;;;;;;2.00;1.67;;;;;;;7.69;100.00;101335.69;5010962;28;20180;-75
2022/10/11 06:13:41;;;;;;;0.63;0.63;;;;;;;7.68;100.00;101334.88;5010841;28;20172;-76
2022/10/11 06:16:06;;;;;;;3.07;1.57;;;;;;;7.66;100.00;101342.47;5010208;28;20201;-75
2022/10/11 06:18:32;;;;;;;3.77;1.33;;;;;;;7.68;100.00;101342.22;5027737;28;20667;-75
2022/10/11 06:20:58;;;;;;;9.33;3.07;;;;;;;7.69;100.00;101336.50;5011141;28;20172;-73
2022/10/11 06:23:24;;;;;;;10.37;1.50;;;;;;;7.72;100.00;101341.41;5002219;28;20184;-73
2022/10/11 06:26:01;;;;;;;1.70;1.60;;;;;;;7.74;100.00;101344.66;5010963;28;20181;-73
2022/10/11 06:28:28;;;;;;;0.97;0.97;;;;;;;7.78;100.00;101353.09;5011150;28;20498;-73
2022/10/11 06:30:54;;;;;;;3.60;2.67;;;;;;;7.79;100.00;101359.34;5011161;28;20192;-73
2022/10/11 06:33:20;;;;;;;1.13;1.07;;;;;;;7.75;100.00;101354.44;5011030;28;20200;-73
2022/10/11 06:35:45;;;;;;;1.10;1.00;;;;;;;7.80;100.00;101360.97;5010857;28;20238;-72
2022/10/11 06:38:10;;;;;;;1.70;1.60;;;;;;;7.79;100.00;101360.16;5011475;28;20180;-72
2022/10/11 06:40:36;;;;;;;24.93;4.43;;;;;;;7.79;100.00;101368.31;5011582;28;20176;-73
2022/10/11 06:43:01;;;;;;;11.03;1.90;;;;;;;7.81;100.00;101365.31;5011114;28;20638;-73
2022/10/11 06:45:26;;;;;;;1.87;1.73;;;;;;;7.82;100.00;101375.97;5010784;28;20222;-72
2022/10/11 06:47:51;;;;;;;8.47;1.67;;;;;;;7.84;100.00;101370.25;5007879;28;20191;-73
2022/10/11 06:50:17;;;;;;;1.07;1.07;;;;;;;7.84;100.00;101381.94;5005828;28;20601;-72
2022/10/11 06:52:42;;;;;;;5.90;2.17;;;;;;;7.86;100.00;101373.50;5015319;28;20407;-73
2022/10/11 06:55:07;;;;;;;3.60;1.23;;;;;;;7.89;100.00;101378.41;5014953;28;20707;-72
2022/10/11 06:57:33;;;;;;;4.57;2.63;;;;;;;7.89;100.00;101379.22;5014580;28;20208;-73
2022/10/11 06:59:58;;;;;;;2.97;2.20;;;;;;;7.94;100.00;101386.56;5014982;28;20235;-72
2022/10/11 07:02:23;;;;;;;9.23;2.27;;;;;;;7.97;100.00;101389.59;5014843;28;20556;-73
2022/10/11 07:04:49;;;;;;;2.87;2.57;;;;;;;7.99;100.00;101389.31;5029854;28;20196;-72
2022/10/11 07:07:14;;;;;;;2.93;1.03;;;;;;;8.02;100.00;101391.50;5014863;28;20544;-73
2022/10/11 07:09:40;;;;;;;5.43;3.17;;;;;;;8.07;100.00;101399.66;5014716;28;20168;-73
2022/10/11 07:12:05;;;;;;;7.63;1.63;;;;;;;8.12;100.00;101399.66;5029913;28;20177;-73
2022/10/11 07:14:31;;;;;;;7.73;2.00;;;;;;;8.19;100.00;101402.91;5014612;28;20184;-74
2022/10/11 07:16:56;;;;;;;0.97;0.60;;;;;;;8.24;100.00;101404.81;5013962;28;20295;-74
2022/10/11 07:19:22;;;;;;;17.17;1.90;;;;;;;8.29;100.00;101408.38;5014575;28;20188;-83
2022/10/11 07:21:47;;;;;;;9.47;1.07;;;;;;;8.33;100.00;101409.47;5028348;28;20214;-75
2022/10/11 07:24:12;;;;;;;3.33;1.90;;;;;;;8.41;100.00;101410.88;5034246;28;20180;-74
2022/10/11 07:26:38;;;;;;;8.10;3.83;;;;;;;8.47;100.00;101415.22;5034018;28;20716;-73
2022/10/11 07:29:03;;;;;;;3.40;1.97;;;;;;;8.54;100.00;101409.50;5034297;28;20180;-73
2022/10/11 07:31:29;;;;;;;6.77;1.97;;;;;;;8.57;100.00;101417.94;5034144;28;20179;-74
2022/10/11 07:33:54;;;;;;;7.77;2.03;;;;;;;8.61;100.00;101420.91;5034114;28;20230;-74
2022/10/11 07:36:19;;;;;;;0.93;0.57;;;;;;;8.68;100.00;101418.75;5033802;28;20203;-74
2022/10/11 07:38:46;;;;;;;1.73;1.63;;;;;;;8.77;100.00;101430.69;5033963;28;20623;-74
2022/10/11 07:41:12;;;;;;;0.83;0.77;;;;;;;8.84;100.00;101431.25;5034008;28;20168;-74
2022/10/11 07:43:38;;;;;;;1.57;1.43;;;;;;;8.89;100.00;101424.97;5033881;28;20558;-74
2022/10/11 07:46:04;;;;;;;1.70;1.00;;;;;;;8.98;100.00;101436.13;5033521;28;20522;-73
2022/10/11 07:48:31;;;;;;;6.93;1.73;;;;;;;9.02;100.00;101432.56;5034154;28;20255;-74
2022/10/11 07:51:08;;;;;;;14.63;1.70;;;;;;;9.11;100.00;101439.09;5015661;28;20183;-74
2022/10/11 07:53:46;;;;;;;5.93;1.80;;;;;;;9.24;100.00;101434.94;5033184;28;20175;-74
2022/10/11 07:56:14;;;;;;;18.60;2.90;;;;;;;9.28;100.00;101436.03;5015344;28;20203;-74
2022/10/11 07:58:40;;;;;;;8.83;2.87;;;;;;;9.31;100.00;101442.84;5033514;28;20183;-75
2022/10/11 08:01:06;;;;;;;0.83;0.83;;;;;;;9.39;100.00;101447.69;5033128;28;20647;-75
2022/10/11 08:03:32;;;;;;;5.17;2.30;;;;;;;9.44;100.00;101448.50;5016996;28;20191;-73
2022/10/11 08:06:03;;;;;;;6.43;2.00;;;;;;;9.50;100.00;101454.75;5033280;28;20180;-74
2022/10/11 08:08:28;;;;;;;5.40;2.07;;;;;;;9.51;100.00;101451.75;5033618;28;20200;-73
2022/10/11 08:10:54;;;;;;;1.07;0.97;;;;;;;9.59;100.00;101466.72;5029747;28;20234;-74
2022/10/11 08:13:19;;;;;;;1.30;1.07;;;;;;;9.65;100.00;101462.88;5012389;28;20303;-73
2022/10/11 08:15:45;;;;;;;1.40;1.23;;;;;;;9.69;100.00;101468.56;5013428;28;20641;-74
2022/10/11 08:18:10;;;;;;;1.57;1.07;;;;;;;9.73;100.00;101464.22;5013444;28;20180;-73
2022/10/11 08:20:38;;;;;;;7.13;1.40;;;;;;;9.77;100.00;101470.72;5013895;28;20523;-73
2022/10/11 08:23:03;;;;;;;1.70;1.60;;;;;;;9.83;100.00;101466.88;5014740;28;20172;-74
2022/10/11 08:25:28;;;;;;;2.07;1.93;;;;;;;9.85;100.00;101467.44;5013032;28;20657;-75
2022/10/11 08:27:54;;;;;;;13.90;1.57;;;;;;;9.89;100.00;101471.22;5012820;28;20176;-75
2022/10/11 08:30:19;;;;;;;3.33;2.50;;;;;;;9.88;100.00;101460.59;5012821;28;20600;-75
2022/10/11 08:32:44;;;;;;;6.83;1.27;;;;;;;9.87;100.00;101465.22;5013229;28;20195;-76
2022/10/11 08:35:10;;;;;;;0.70;0.70;;;;;;;9.96;100.00;101470.91;5012969;28;20184;-76
2022/10/11 08:37:35;;;;;;;0.60;0.60;;;;;;;10.06;100.00;101468.94;5012717;28;20278;-75
2022/10/11 08:40:02;;;;;;;0.40;0.40;;;;;;;10.07;100.00;101477.94;5012807;28;20637;-75
2022/10/11 08:42:49;;;;;;;4.80;1.93;;;;;;;10.10;100.00;101480.91;5012792;28;20176;-75
2022/10/11 08:45:32;;;;;;;1.33;1.10;;;;;;;10.07;99.87;101480.66;5012874;28;20219;-75
2022/10/11 08:48:20;;;;;;;0.77;0.73;;;;;;;10.17;100.00;101486.06;5012561;28;20207;-75
2022/10/11 08:50:51;;;;;;;1.87;1.10;;;;;;;10.28;99.41;101490.41;5012526;28;20168;-75
2022/10/11 08:53:25;;;;;;;3.70;1.60;;;;;;;10.32;98.96;101482.44;5012579;28;20199;-75
2022/10/11 08:55:54;;;;;;;1.93;1.10;;;;;;;10.39;98.51;101493.88;5012275;28;20203;-76
2022/10/11 08:58:23;;;;;;;6.57;1.07;;;;;;;10.43;98.19;101495.75;5012690;28;20620;-75
2022/10/11 09:00:52;;;;;;;4.93;2.33;;;;;;;10.45;97.61;101483.72;5012552;28;20180;-75
2022/10/11 09:03:47;;;;;;;2.43;1.03;;;;;;;10.51;97.20;101485.31;5012258;28;20188;-75
2022/10/11 09:06:24;;;;;;;10.50;0.97;;;;;;;10.59;96.13;101492.91;4986046;28;20184;-75
2022/10/11 09:09:08;;;;;;;0.37;0.37;;;;;;;10.60;96.32;101492.63;5012300;28;20183;-75
2022/10/11 09:11:56;;;;;;;2.10;1.67;;;;;;;10.70;96.39;101494.44;5012152;28;20176;-75
2022/10/11 09:14:53;;;;;;;1.40;0.83;;;;;;;10.70;95.65;101497.16;5011342;28;20180;-75
2022/10/11 09:17:36;;;;;;;6.87;2.67;;;;;;;10.73;96.31;101493.88;5009583;28;20684;-75
2022/10/11 09:20:11;;;;;;;2.27;1.20;;;;;;;10.71;96.83;101491.44;5005156;28;20199;-76
2022/10/11 09:22:42;;;;;;;2.63;2.30;;;;;;;10.77;96.87;101491.38;5026825;28;20179;-74
2022/10/11 09:25:21;;;;;;;4.03;1.90;;;;;;;10.87;97.27;101503.06;5031782;28;20202;-75
2022/10/11 09:28:17;;;;;;;1.03;1.03;;;;;;;10.94;97.12;101502.72;5031505;28;20267;-74
2022/10/11 09:30:48;;;;;;;4.87;1.33;;;;;;;10.98;96.38;101501.03;5031973;28;20238;-75
2022/10/11 09:33:16;;;;;;;10.27;4.07;;;;;;;11.13;96.81;101502.78;5031489;28;20577;-75
2022/10/11 09:35:46;;;;;;;3.57;2.37;;;;;;;11.17;96.32;101499.22;5031269;28;20179;-75
2022/10/11 09:38:30;;;;;;;2.33;1.13;;;;;;;11.37;95.51;101500.09;5031490;28;20179;-75
2022/10/11 09:41:20;;;;;;;0.60;0.60;;;;;;;11.46;94.28;101490.16;5031576;28;20758;-75
2022/10/11 09:43:48;;;;;;;37.23;1.50;;;;;;;11.55;94.18;101493.84;5031358;28;20218;-75
2022/10/11 09:46:30;;;;;;;0.40;0.23;;;;;;;11.65;93.73;101498.41;5031037;28;20187;-76
2022/10/11 09:48:56;;;;;;;0.87;0.30;;;;;;;11.72;90.79;101507.91;5015901;28;20244;-75
2022/10/11 09:51:26;;;;;;;2.03;1.50;;;;;;;11.79;88.88;101507.56;5011769;28;20222;-75
2022/10/11 09:54:00;;;;;;;0.70;0.70;;;;;;;11.85;88.67;101501.72;5011557;28;20418;-75
2022/10/11 09:56:28;;;;;;;0.50;0.50;;;;;;;11.89;87.92;101511.00;5010984;28;20203;-75
2022/10/11 09:59:09;;;;;;;1.67;1.50;;;;;;;11.99;88.33;101503.72;5011202;28;20186;-75
2022/10/11 10:01:35;;;;;;;8.73;0.63;;;;;;;12.06;88.05;101505.00;5011045;28;20188;-75
2022/10/11 10:04:08;;;;;;;6.67;1.80;;;;;;;12.10;86.89;101503.28;5011162;28;20191;-75
2022/10/11 10:06:33;;;;;;;9.03;1.40;;;;;;;12.09;86.30;101503.59;5010786;28;20223;-74
2022/10/11 10:09:20;;;;;;;3.93;0.37;;;;;;;12.22;86.19;101516.56;5010967;28;20219;-75
2022/10/11 10:11:45;;;;;;;4.13;1.00;;;;;;;12.24;85.64;101511.59;5010784;28;20659;-75
2022/10/11 10:14:27;;;;;;;0.33;0.33;;;;;;;12.35;83.56;101507.59;5025931;28;20180;-75
2022/10/11 10:17:13;;;;;;;2.77;1.67;;;;;;;12.43;82.72;101511.56;5010311;28;20282;-74
2022/10/11 10:19:41;;;;;;;5.60;0.67;;;;;;;12.46;82.10;101511.81;5010646;28;20203;-73
2022/10/11 10:22:17;;;;;;;0.30;0.30;;;;;;;12.46;81.75;101506.34;5011163;28;20172;-73
2022/10/11 10:24:43;;;;;;;1.03;1.03;;;;;;;12.58;80.38;101502.31;5011257;28;20579;-72
2022/10/11 10:27:17;;;;;;;1.10;1.03;;;;;;;12.66;80.64;101507.13;5012030;28;20195;-73
2022/10/11 10:30:00;;;;;;;0.00;0.00;;;;;;;12.65;81.10;101508.22;5011180;28;20226;-73
2022/10/11 10:32:33;;;;;;;6.50;0.60;;;;;;;12.84;81.30;101511.75;5011021;28;20168;-73
2022/10/11 10:35:17;;;;;;;2.13;0.63;;;;;;;12.84;77.62;101505.44;5008137;28;20264;-74
2022/10/11 10:38:10;;;;;;;1.93;1.30;;;;;;;12.89;77.41;101505.38;5013526;28;20701;-74
2022/10/11 10:40:51;;;;;;;3.20;2.93;;;;;;;13.03;78.87;101508.97;5010707;28;20189;-76
2022/10/11 10:43:19;;;;;;;1.80;1.03;;;;;;;13.05;77.32;101512.22;5010724;28;20188;-74
2022/10/11 10:46:06;;;;;;;0.00;0.00;;;;;;;13.03;75.81;101500.72;5010678;28;20176;-75
2022/10/11 10:48:38;;;;;;;5.27;1.13;;;;;;;13.03;76.55;101503.47;5010869;28;20181;-74
2022/10/11 10:51:16;;;;;;;0.00;0.00;;;;;;;13.07;77.03;101504.50;5011078;28;20617;-74
2022/10/11 10:53:50;;;;;;;4.70;1.23;;;;;;;13.24;77.32;101506.69;5011452;28;20222;-74
2022/10/11 10:56:22;;;;;;;0.53;0.53;;;;;;;13.31;76.96;101504.38;5030465;28;20219;-74
2022/10/11 10:59:15;;;;;;;0.70;0.70;;;;;;;13.16;74.65;101505.41;5030054;28;20314;-73
2022/10/11 11:01:56;;;;;;;8.83;1.47;;;;;;;13.09;73.56;101496.78;5029822;28;20212;-73
2022/10/11 11:04:32;;;;;;;0.00;0.00;;;;;;;13.12;73.75;101509.88;5028708;28;20585;-72
2022/10/11 11:07:19;;;;;;;0.93;0.93;;;;;;;13.12;73.40;101498.91;5012258;28;20262;-73
2022/10/11 11:09:54;;;;;;;0.77;0.23;;;;;;;13.21;73.57;101502.63;5025827;28;20636;-73
2022/10/11 11:12:25;;;;;;;0.10;0.10;;;;;;;13.22;71.13;101504.25;5010631;28;20230;-72
2022/10/11 11:15:26;;;;;;;1.90;1.43;;;;;;;13.36;70.92;101496.03;5010620;28;20640;-74
2022/10/11 11:18:13;;;;;;;0.40;0.40;;;;;;;13.34;70.55;101496.34;5002743;28;20292;-75
2022/10/11 11:20:56;;;;;;;0.10;0.10;;;;;;;13.37;70.78;101486.66;5010668;28;20569;-75
2022/10/11 11:23:51;;;;;;;0.13;0.13;;;;;;;13.50;70.33;101499.59;5022194;28;20184;-75
2022/10/11 11:26:31;;;;;;;0.00;0.00;;;;;;;13.54;70.49;101499.78;5030120;28;20188;-75
2022/10/11 11:29:07;;;;;;;1.57;0.33;;;;;;;13.45;69.62;101491.44;5030422;28;20187;-75
2022/10/11 11:31:48;;;;;;;6.93;0.50;;;;;;;13.35;69.37;101483.41;5017226;28;20410;-75
2022/10/11 11:34:25;;;;;;;0.00;0.00;;;;;;;13.32;69.67;101495.81;5010625;28;20173;-76
2022/10/11 11:37:01;;;;;;;0.00;0.00;;;;;;;13.38;69.14;101497.34;5012919;28;20706;-75
2022/10/11 11:39:43;;;;;;;0.00;0.00;;;;;;;13.41;68.30;101506.91;5014057;28;20183;-75